Time;durP1;ratioP1;P1;durP2;ratioP2;P2;SDS_P1;SDS_P2;PMS_P1;PMS_P2;Temp;Humidity;BMP_temperature;BMP_pressure;BME280_temperature;BME280_humidity;BME280_pressure;Samples;Min_cycle;Max_cycle;Signal;HPM_P1;HPM_P2
2022/08/07 00:00:40;;;;;;;3.92;1.63;;;16.10;65.50;;;;;;5055242;28;20495;-27
2022/08/07 00:03:06;;;;;;;4.60;1.95;;;16.10;65.50;;;;;;5054698;28;20100;-25
2022/08/07 00:05:32;;;;;;;1.98;1.60;;;16.00;65.50;;;;;;5055365;28;20033;-27
2022/08/07 00:07:58;;;;;;;2.72;1.65;;;16.10;65.60;;;;;;5054660;28;20093;-24
2022/08/07 00:10:23;;;;;;;2.20;1.55;;;16.10;65.70;;;;;;5054794;28;20132;-25
2022/08/07 00:12:49;;;;;;;2.83;1.90;;;16.10;65.80;;;;;;5054415;28;20115;-25
2022/08/07 00:15:15;;;;;;;2.80;1.63;;;16.00;65.70;;;;;;5054670;28;20099;-25
2022/08/07 00:17:41;;;;;;;2.53;1.80;;;16.00;65.70;;;;;;5054635;28;20025;-27
2022/08/07 00:20:07;;;;;;;2.10;1.90;;;16.00;65.80;;;;;;5054173;28;20028;-25
2022/08/07 00:22:32;;;;;;;2.38;1.88;;;16.00;65.80;;;;;;5054070;28;20029;-25
2022/08/07 00:24:58;;;;;;;3.88;2.20;;;16.00;65.90;;;;;;5054419;28;20182;-25
2022/08/07 00:27:24;;;;;;;2.08;1.67;;;16.00;65.90;;;;;;5054188;28;20094;-26
2022/08/07 00:29:49;;;;;;;1.90;1.70;;;15.90;66.00;;;;;;5054051;28;20031;-26
2022/08/07 00:32:16;;;;;;;3.28;1.70;;;15.90;66.60;;;;;;5054122;28;20032;-25
2022/08/07 00:34:41;;;;;;;2.45;2.05;;;15.90;66.00;;;;;;5052583;28;20025;-25
2022/08/07 00:37:07;;;;;;;2.22;2.00;;;15.90;66.00;;;;;;5054250;28;20102;-25
2022/08/07 00:39:34;;;;;;;2.10;1.90;;;15.90;66.10;;;;;;5053883;28;20127;-26
2022/08/07 00:42:01;;;;;;;2.85;2.30;;;15.90;66.10;;;;;;5053909;28;20029;-25
2022/08/07 00:44:27;;;;;;;2.20;2.00;;;15.90;66.20;;;;;;5054149;28;20036;-25
2022/08/07 00:46:53;;;;;;;3.28;2.25;;;15.80;66.10;;;;;;5053972;28;20028;-25
2022/08/07 00:49:18;;;;;;;3.22;2.05;;;15.80;66.10;;;;;;5054189;28;20033;-25
2022/08/07 00:51:44;;;;;;;2.90;1.95;;;15.80;66.20;;;;;;5054053;28;20103;-25
2022/08/07 00:54:12;;;;;;;4.43;2.28;;;15.80;66.20;;;;;;5054034;28;20025;-28
2022/08/07 00:56:37;;;;;;;2.35;2.05;;;15.80;66.20;;;;;;5054327;28;20175;-26
2022/08/07 00:59:04;;;;;;;2.58;2.22;;;15.80;66.20;;;;;;5052233;28;20060;-25
2022/08/07 01:01:30;;;;;;;3.20;2.10;;;15.80;66.20;;;;;;5053871;28;20039;-25
2022/08/07 01:03:56;;;;;;;2.78;2.20;;;15.80;66.30;;;;;;5053636;28;20108;-25
2022/08/07 01:06:21;;;;;;;2.88;2.30;;;15.70;66.20;;;;;;5053315;28;20029;-24
2022/08/07 01:08:47;;;;;;;2.13;1.90;;;15.80;66.30;;;;;;5053479;28;20021;-25
2022/08/07 01:11:14;;;;;;;2.35;2.08;;;15.80;66.30;;;;;;5053363;28;20033;-25
2022/08/07 01:13:40;;;;;;;3.53;2.20;;;15.70;66.20;;;;;;5053205;28;20511;-25
2022/08/07 01:16:08;;;;;;;2.45;2.00;;;15.70;66.30;;;;;;5053362;28;20087;-25
2022/08/07 01:18:34;;;;;;;3.60;2.42;;;15.70;66.30;;;;;;5053089;28;20018;-26
2022/08/07 01:21:17;;;;;;;2.92;2.35;;;15.70;66.40;;;;;;5052980;28;20120;-25
2022/08/07 01:23:44;;;;;;;3.22;2.50;;;15.70;66.40;;;;;;5053239;28;20419;-26
2022/08/07 01:26:12;;;;;;;3.38;2.30;;;15.70;66.30;;;;;;5053043;28;20104;-25
2022/08/07 01:28:40;;;;;;;3.13;2.55;;;15.70;66.40;;;;;;5052867;28;20032;-25
2022/08/07 01:31:06;;;;;;;3.80;2.40;;;15.70;66.40;;;;;;5053092;28;20032;-25
2022/08/07 01:33:32;;;;;;;3.10;2.30;;;15.70;66.40;;;;;;5050957;28;20510;-25
2022/08/07 01:35:59;;;;;;;3.95;2.63;;;15.60;67.00;;;;;;5052666;28;20025;-25
2022/08/07 01:38:25;;;;;;;4.47;2.65;;;15.60;66.40;;;;;;5052833;28;20068;-25
2022/08/07 01:40:58;;;;;;;2.42;2.20;;;15.60;66.50;;;;;;5052581;28;20059;-25
2022/08/07 01:43:25;;;;;;;4.43;2.50;;;15.60;66.50;;;;;;5052727;28;20033;-26
2022/08/07 01:45:53;;;;;;;3.38;2.53;;;15.60;66.50;;;;;;5052761;28;20064;-24
2022/08/07 01:48:19;;;;;;;2.97;2.40;;;15.60;66.60;;;;;;5052960;28;20455;-25
2022/08/07 01:51:18;;;;;;;2.70;2.30;;;15.60;66.60;;;;;;5052503;28;20083;-25
2022/08/07 01:53:46;;;;;;;2.55;2.28;;;15.50;66.60;;;;;;5040771;28;20037;-25
2022/08/07 01:56:25;;;;;;;4.40;2.15;;;15.50;66.60;;;;;;5052467;28;20059;-25
2022/08/07 01:59:06;;;;;;;3.03;2.65;;;15.50;66.70;;;;;;5052514;28;20494;-25
2022/08/07 02:01:38;;;;;;;4.07;2.55;;;15.50;66.70;;;;;;5052430;28;20044;-25
2022/08/07 02:04:12;;;;;;;2.92;2.58;;;15.50;66.80;;;;;;5052922;28;20362;-25
2022/08/07 02:06:39;;;;;;;3.88;2.92;;;15.50;66.80;;;;;;5052356;28;20033;-25
2022/08/07 02:09:09;;;;;;;3.42;2.58;;;15.40;66.80;;;;;;5052407;28;20165;-26
2022/08/07 02:11:40;;;;;;;2.85;2.60;;;15.40;66.80;;;;;;5052375;28;20064;-26
2022/08/07 02:14:07;;;;;;;4.50;2.63;;;15.40;66.90;;;;;;5052414;28;20031;-26
2022/08/07 02:16:36;;;;;;;3.38;2.97;;;15.40;66.90;;;;;;5052323;28;20067;-25
2022/08/07 02:19:07;;;;;;;3.47;2.53;;;15.40;66.90;;;;;;5052323;28;20380;-25
2022/08/07 02:21:37;;;;;;;3.17;2.78;;;15.40;66.90;;;;;;5052247;28;20020;-25
2022/08/07 02:24:04;;;;;;;3.22;2.58;;;15.40;66.90;;;;;;5050959;28;20025;-25
2022/08/07 02:26:33;;;;;;;3.60;2.83;;;15.40;66.90;;;;;;5052424;28;20029;-25
2022/08/07 02:28:59;;;;;;;3.42;2.90;;;15.40;67.00;;;;;;5052167;28;20025;-24
2022/08/07 02:31:27;;;;;;;4.35;2.67;;;15.40;67.00;;;;;;5052146;28;20427;-24
2022/08/07 02:33:55;;;;;;;3.75;3.00;;;15.40;67.00;;;;;;5052359;28;20018;-27
2022/08/07 02:36:22;;;;;;;3.97;3.00;;;15.40;67.00;;;;;;5052461;28;20368;-26
2022/08/07 02:38:50;;;;;;;3.33;2.85;;;15.40;67.00;;;;;;5052096;28;20069;-26
2022/08/07 02:41:16;;;;;;;3.85;2.90;;;15.40;67.10;;;;;;5052448;28;20029;-30
2022/08/07 02:43:42;;;;;;;3.50;3.00;;;15.30;67.00;;;;;;5052113;28;20561;-25
2022/08/07 02:46:09;;;;;;;5.40;3.30;;;15.30;67.10;;;;;;5053390;28;20029;-25
2022/08/07 02:48:36;;;;;;;3.75;3.00;;;15.30;67.10;;;;;;5054643;28;20480;-26
2022/08/07 02:51:06;;;;;;;6.30;3.17;;;15.30;67.20;;;;;;5055838;28;20113;-25
2022/08/07 02:53:34;;;;;;;5.35;3.00;;;15.30;67.30;;;;;;5055605;28;20170;-25
2022/08/07 02:56:01;;;;;;;4.70;3.13;;;15.30;67.30;;;;;;5055520;28;20039;-25
2022/08/07 02:58:28;;;;;;;5.03;3.10;;;15.30;67.40;;;;;;5055750;28;20546;-25
2022/08/07 03:00:56;;;;;;;3.63;3.22;;;15.30;67.40;;;;;;5055655;28;20060;-26
2022/08/07 03:03:23;;;;;;;3.30;2.65;;;15.30;67.40;;;;;;5055540;28;20484;-25
2022/08/07 03:05:52;;;;;;;3.78;3.05;;;15.30;67.40;;;;;;5055372;28;20495;-25
2022/08/07 03:08:20;;;;;;;3.95;3.05;;;15.30;67.40;;;;;;5055284;28;20083;-24
2022/08/07 03:10:46;;;;;;;4.32;2.90;;;15.30;67.40;;;;;;5055161;28;20116;-25
2022/08/07 03:13:14;;;;;;;4.35;3.38;;;15.30;67.40;;;;;;5055373;28;20148;-26
2022/08/07 03:15:40;;;;;;;4.20;3.20;;;15.30;67.50;;;;;;5055078;28;20024;-28
2022/08/07 03:18:06;;;;;;;5.30;3.25;;;15.30;67.50;;;;;;5054146;28;20025;-25
2022/08/07 03:20:32;;;;;;;5.28;3.45;;;15.20;67.50;;;;;;5054896;28;20187;-26
2022/08/07 03:22:58;;;;;;;6.47;3.10;;;15.20;67.50;;;;;;5055168;28;20021;-25
2022/08/07 03:25:26;;;;;;;3.83;3.08;;;15.20;67.60;;;;;;5054834;28;20512;-25
2022/08/07 03:27:54;;;;;;;4.45;3.28;;;15.20;67.60;;;;;;5054879;28;20058;-26
2022/08/07 03:30:22;;;;;;;3.85;3.20;;;15.20;67.70;;;;;;5054789;28;20065;-24
2022/08/07 03:32:50;;;;;;;3.45;3.13;;;15.20;67.80;;;;;;5054822;28;20136;-25
2022/08/07 03:35:20;;;;;;;4.45;3.25;;;15.10;67.80;;;;;;5053467;28;20021;-24
2022/08/07 03:37:52;;;;;;;3.67;3.10;;;15.10;67.90;;;;;;5054708;28;20097;-25
2022/08/07 03:40:18;;;;;;;4.35;3.30;;;15.10;68.00;;;;;;5053192;28;20060;-26
2022/08/07 03:42:45;;;;;;;5.88;3.40;;;15.10;68.00;;;;;;5055021;28;20468;-25
2022/08/07 03:45:11;;;;;;;3.60;2.97;;;15.10;68.00;;;;;;5054906;28;20432;-25
2022/08/07 03:47:37;;;;;;;4.20;3.45;;;15.10;68.10;;;;;;5054574;28;20017;-25
2022/08/07 03:50:03;;;;;;;5.18;3.58;;;15.00;68.00;;;;;;5054659;28;20493;-25
2022/08/07 03:52:30;;;;;;;4.60;3.35;;;15.00;68.10;;;;;;5055020;28;20021;-25
2022/08/07 03:54:57;;;;;;;4.45;3.15;;;15.00;68.10;;;;;;5054887;28;20029;-25
2022/08/07 03:57:25;;;;;;;5.10;3.50;;;15.00;68.20;;;;;;5053433;28;20409;-24
2022/08/07 03:59:51;;;;;;;4.22;3.20;;;15.00;68.30;;;;;;5054366;28;20025;-25
2022/08/07 04:02:17;;;;;;;4.80;3.13;;;14.90;68.30;;;;;;5054689;28;20025;-25
2022/08/07 04:04:42;;;;;;;6.30;3.65;;;14.90;68.30;;;;;;5054409;28;20439;-24
2022/08/07 04:07:08;;;;;;;4.07;3.50;;;15.00;68.40;;;;;;5054666;28;20025;-24
2022/08/07 04:09:35;;;;;;;4.55;3.60;;;14.90;68.40;;;;;;5054556;28;20489;-24
2022/08/07 04:12:01;;;;;;;4.80;3.60;;;14.90;68.50;;;;;;5054533;28;20028;-25
2022/08/07 04:14:27;;;;;;;4.32;3.45;;;14.90;68.50;;;;;;5054001;28;20028;-24
2022/08/07 04:16:53;;;;;;;4.70;3.67;;;14.80;68.50;;;;;;5052593;28;20025;-25
2022/08/07 04:19:18;;;;;;;5.80;3.75;;;14.90;68.60;;;;;;5054115;28;20017;-25
2022/08/07 04:21:44;;;;;;;4.15;3.60;;;14.80;68.60;;;;;;5053860;28;20425;-25
2022/08/07 04:24:11;;;;;;;5.15;3.80;;;14.80;68.70;;;;;;5054139;28;20495;-24
2022/08/07 04:26:40;;;;;;;5.15;3.47;;;14.90;68.80;;;;;;5053784;28;20048;-25
2022/08/07 04:29:08;;;;;;;4.70;4.00;;;14.90;68.80;;;;;;5052755;28;20449;-24
2022/08/07 04:31:36;;;;;;;4.18;3.50;;;14.80;68.80;;;;;;5053635;28;20353;-25
2022/08/07 04:34:02;;;;;;;5.75;3.75;;;14.80;68.80;;;;;;5053814;28;20035;-25
2022/08/07 04:36:28;;;;;;;4.50;3.83;;;14.80;68.80;;;;;;5054065;28;20437;-25
2022/08/07 04:38:53;;;;;;;6.07;3.80;;;14.90;68.80;;;;;;5053371;28;20124;-24
2022/08/07 04:41:19;;;;;;;4.18;3.58;;;14.90;68.80;;;;;;5053465;28;20028;-24
2022/08/07 04:43:45;;;;;;;4.90;4.03;;;14.90;68.80;;;;;;5053690;28;20028;-25
2022/08/07 04:46:17;;;;;;;4.60;3.63;;;14.90;68.80;;;;;;5053907;28;20385;-26
2022/08/07 04:48:52;;;;;;;5.13;3.55;;;14.90;68.90;;;;;;5053776;28;20036;-25
2022/08/07 04:51:44;;;;;;;5.25;3.72;;;14.90;68.80;;;;;;5053331;28;20029;-26
2022/08/07 04:54:37;;;;;;;5.50;3.50;;;14.90;69.00;;;;;;5053329;28;20021;-27
2022/08/07 04:57:12;;;;;;;5.15;3.35;;;14.90;68.90;;;;;;5053395;28;20083;-25
2022/08/07 04:59:47;;;;;;;5.30;3.90;;;14.90;68.90;;;;;;5053435;28;20025;-26
2022/08/07 05:02:44;;;;;;;7.65;3.90;;;14.90;68.90;;;;;;5053297;28;20029;-25
2022/08/07 05:05:31;;;;;;;4.65;3.75;;;14.90;69.00;;;;;;5053421;28;20074;-25
2022/08/07 05:08:08;;;;;;;4.97;4.13;;;14.90;69.00;;;;;;5053071;28;20480;-25
2022/08/07 05:10:39;;;;;;;5.57;4.07;;;15.00;69.00;;;;;;5053195;28;20052;-25
2022/08/07 05:13:19;;;;;;;6.13;4.13;;;15.00;69.00;;;;;;5052849;28;20063;-25
2022/08/07 05:15:49;;;;;;;6.07;3.95;;;15.00;69.10;;;;;;5052844;28;20017;-25
2022/08/07 05:18:33;;;;;;;6.07;4.28;;;15.00;69.00;;;;;;5052691;28;20021;-26
2022/08/07 05:21:02;;;;;;;6.68;4.65;;;15.00;69.10;;;;;;5053044;28;20052;-26
2022/08/07 05:23:49;;;;;;;4.72;4.15;;;15.00;69.10;;;;;;5052905;28;20021;-25
2022/08/07 05:26:20;;;;;;;5.25;3.92;;;15.00;69.10;;;;;;5052708;28;20083;-25
2022/08/07 05:28:50;;;;;;;6.28;4.13;;;15.10;69.20;;;;;;5052581;28;20017;-26
2022/08/07 05:31:20;;;;;;;6.45;4.53;;;15.10;69.20;;;;;;5052672;28;20025;-25
2022/08/07 05:33:51;;;;;;;5.68;4.55;;;15.10;69.20;;;;;;5052438;28;20460;-26
2022/08/07 05:36:19;;;;;;;6.38;4.40;;;15.10;69.20;;;;;;5052498;28;20021;-29
2022/08/07 05:38:45;;;;;;;4.85;4.30;;;15.20;69.30;;;;;;5052469;28;20061;-25
2022/08/07 05:41:11;;;;;;;5.22;4.20;;;15.20;69.20;;;;;;5052348;28;20029;-25
2022/08/07 05:43:39;;;;;;;6.75;4.25;;;15.20;69.10;;;;;;5052480;28;20033;-31
2022/08/07 05:46:05;;;;;;;6.32;4.47;;;15.30;69.10;;;;;;5050988;28;20052;-25
2022/08/07 05:48:31;;;;;;;6.40;4.15;;;15.40;69.00;;;;;;5052611;28;20122;-24
2022/08/07 05:50:59;;;;;;;6.22;4.45;;;15.40;69.00;;;;;;5052465;28;20484;-24
2022/08/07 05:53:26;;;;;;;6.47;4.30;;;15.50;68.90;;;;;;5052277;28;20017;-25
2022/08/07 05:55:53;;;;;;;5.45;4.45;;;15.50;68.80;;;;;;5052125;28;20119;-26
2022/08/07 05:58:21;;;;;;;5.43;4.35;;;15.60;68.80;;;;;;5050849;28;20059;-24
2022/08/07 06:00:48;;;;;;;6.78;4.25;;;15.60;68.70;;;;;;5052353;28;20020;-25
2022/08/07 06:03:17;;;;;;;6.95;4.38;;;15.70;68.70;;;;;;5052455;28;20081;-26
2022/08/07 06:05:45;;;;;;;7.28;4.32;;;15.70;68.70;;;;;;5052524;28;20131;-25
2022/08/07 06:08:11;;;;;;;7.07;4.18;;;15.80;68.70;;;;;;5052266;28;20401;-25
2022/08/07 06:10:37;;;;;;;5.38;3.97;;;15.80;68.60;;;;;;5052236;28;20033;-25
2022/08/07 06:13:03;;;;;;;6.28;3.85;;;15.80;68.60;;;;;;5052495;28;20048;-25
2022/08/07 06:15:29;;;;;;;5.93;3.88;;;15.90;68.50;;;;;;5052308;28;20021;-25
2022/08/07 06:17:57;;;;;;;6.25;3.67;;;16.00;68.50;;;;;;5050898;28;20125;-25
2022/08/07 06:20:23;;;;;;;6.30;3.85;;;16.00;68.40;;;;;;5053475;28;20473;-26
2022/08/07 06:22:52;;;;;;;5.82;4.07;;;16.10;68.30;;;;;;5056201;28;20487;-25
2022/08/07 06:25:18;;;;;;;4.63;3.47;;;16.10;68.20;;;;;;5056381;28;20017;-25
2022/08/07 06:27:44;;;;;;;5.60;3.47;;;16.20;68.10;;;;;;5055984;28;20492;-26
2022/08/07 06:30:10;;;;;;;4.72;3.50;;;16.30;68.10;;;;;;5055975;28;20150;-25
2022/08/07 06:32:35;;;;;;;4.38;3.90;;;16.30;68.00;;;;;;5056033;28;20122;-25
2022/08/07 06:35:01;;;;;;;7.53;4.25;;;16.40;67.90;;;;;;5055882;28;20056;-26
2022/08/07 06:37:27;;;;;;;4.22;3.38;;;16.50;67.90;;;;;;5055796;28;20393;-25
2022/08/07 06:39:52;;;;;;;4.70;3.67;;;16.60;67.80;;;;;;5055524;28;20134;-26
2022/08/07 06:42:22;;;;;;;4.82;3.63;;;16.60;67.70;;;;;;5055668;28;20025;-24
2022/08/07 06:44:49;;;;;;;6.65;4.00;;;16.70;67.80;;;;;;5055742;28;20025;-25
2022/08/07 06:47:15;;;;;;;4.00;3.60;;;16.70;67.70;;;;;;5055850;28;20039;-25
2022/08/07 06:49:42;;;;;;;4.90;3.75;;;16.80;67.60;;;;;;5055747;28;20028;-26
2022/08/07 06:52:10;;;;;;;5.45;3.40;;;16.90;67.60;;;;;;5055462;28;20086;-25
2022/08/07 06:54:38;;;;;;;3.50;3.10;;;16.90;67.40;;;;;;5055551;28;20052;-27
2022/08/07 06:57:04;;;;;;;4.15;3.08;;;17.00;67.30;;;;;;5055972;28;20040;-25
2022/08/07 06:59:38;;;;;;;3.88;3.03;;;17.00;67.20;;;;;;5055953;28;20469;-25
2022/08/07 07:02:06;;;;;;;4.93;3.22;;;17.10;67.10;;;;;;5056392;28;20049;-25
2022/08/07 07:04:32;;;;;;;3.75;2.90;;;17.20;66.90;;;;;;5055726;28;20123;-26
2022/08/07 07:06:59;;;;;;;4.07;3.10;;;17.20;66.70;;;;;;5055443;28;20519;-25
2022/08/07 07:09:27;;;;;;;3.72;3.10;;;17.30;66.60;;;;;;5055415;28;20036;-24
2022/08/07 07:12:02;;;;;;;4.57;2.75;;;17.40;66.40;;;;;;5053901;28;20024;-24
2022/08/07 07:14:33;;;;;;;4.07;2.95;;;17.50;66.30;;;;;;5055323;28;20021;-25
2022/08/07 07:17:05;;;;;;;3.38;2.88;;;17.50;66.00;;;;;;5055493;28;20025;-27
2022/08/07 07:19:35;;;;;;;4.82;2.60;;;17.50;65.80;;;;;;5055459;28;20033;-24
2022/08/07 07:22:01;;;;;;;4.78;2.63;;;17.50;65.60;;;;;;5055811;28;20049;-27
2022/08/07 07:24:28;;;;;;;3.47;2.70;;;17.60;65.60;;;;;;5055837;28;20351;-25
2022/08/07 07:26:56;;;;;;;4.13;3.10;;;17.60;65.40;;;;;;5055620;28;20412;-25
2022/08/07 07:29:26;;;;;;;3.97;3.03;;;17.70;65.50;;;;;;5055458;28;20032;-25
2022/08/07 07:31:55;;;;;;;4.70;3.05;;;17.80;65.40;;;;;;5055274;28;20361;-26
2022/08/07 07:34:28;;;;;;;2.90;2.35;;;17.90;65.40;;;;;;5055364;28;20057;-26
2022/08/07 07:36:56;;;;;;;4.55;2.88;;;17.90;65.30;;;;;;5055168;28;20032;-25
2022/08/07 07:39:24;;;;;;;4.55;2.70;;;18.00;65.10;;;;;;5055252;28;20044;-25
2022/08/07 07:41:50;;;;;;;2.90;2.40;;;18.00;64.90;;;;;;5054958;28;20519;-25
2022/08/07 07:44:19;;;;;;;2.97;2.55;;;18.10;64.80;;;;;;5054890;28;20049;-26
2022/08/07 07:46:47;;;;;;;3.47;2.17;;;18.10;64.60;;;;;;5055151;28;20059;-26
2022/08/07 07:49:16;;;;;;;2.78;2.30;;;18.20;64.40;;;;;;5054972;28;20101;-27
2022/08/07 07:51:44;;;;;;;3.70;2.28;;;18.30;64.20;;;;;;5054833;28;20345;-26
2022/08/07 07:54:13;;;;;;;3.58;2.15;;;18.30;63.90;;;;;;5054749;28;20063;-26
2022/08/07 07:56:40;;;;;;;2.50;2.28;;;18.40;63.70;;;;;;5054915;28;20025;-25
2022/08/07 07:59:06;;;;;;;2.25;2.05;;;18.50;63.40;;;;;;5054714;28;20074;-27
2022/08/07 08:01:33;;;;;;;2.40;2.20;;;18.50;63.20;;;;;;5055067;28;20100;-28
2022/08/07 08:04:02;;;;;;;2.35;1.88;;;18.50;63.00;;;;;;5054648;28;20023;-25
2022/08/07 08:06:30;;;;;;;3.67;2.40;;;18.60;62.80;;;;;;5054880;28;20025;-25
2022/08/07 08:08:57;;;;;;;3.35;2.10;;;18.60;62.70;;;;;;5054672;28;20021;-25
2022/08/07 08:11:23;;;;;;;2.97;2.03;;;18.70;62.50;;;;;;5054336;28;20028;-26
2022/08/07 08:13:48;;;;;;;2.10;1.77;;;18.80;62.40;;;;;;5054741;28;20021;-26
2022/08/07 08:16:19;;;;;;;2.05;1.70;;;18.80;62.30;;;;;;5054695;28;20021;-26
2022/08/07 08:18:46;;;;;;;2.35;1.83;;;18.90;62.20;;;;;;5054489;28;20135;-25
2022/08/07 08:27:03;;;;;;;3.78;1.90;;;19.10;61.50;;;;;;5054375;28;20056;-25
2022/08/07 08:29:34;;;;;;;2.47;1.83;;;19.20;61.20;;;;;;5054418;28;20021;-25
2022/08/07 08:32:02;;;;;;;2.72;1.80;;;19.30;61.00;;;;;;5054219;28;20028;-27
2022/08/07 08:34:29;;;;;;;1.90;1.60;;;19.40;60.70;;;;;;5054169;28;20071;-25
2022/08/07 08:36:59;;;;;;;2.88;2.00;;;19.50;60.50;;;;;;5054043;28;20491;-25
2022/08/07 08:39:26;;;;;;;2.45;1.63;;;19.50;60.30;;;;;;5054269;28;20052;-25
2022/08/07 08:42:02;;;;;;;1.60;1.50;;;19.60;60.10;;;;;;5054385;28;20032;-26
2022/08/07 08:44:47;;;;;;;2.10;1.75;;;19.60;59.90;;;;;;5053445;28;20064;-26
2022/08/07 08:47:28;;;;;;;1.90;1.70;;;19.70;59.70;;;;;;5053999;28;20032;-25
2022/08/07 08:50:13;;;;;;;2.33;1.60;;;19.80;59.40;;;;;;5052678;28;20024;-25
2022/08/07 08:52:50;;;;;;;3.33;1.55;;;19.80;59.20;;;;;;5053491;28;20413;-27
2022/08/07 08:55:36;;;;;;;1.92;1.50;;;19.90;59.00;;;;;;5053387;28;20070;-26
2022/08/07 08:58:14;;;;;;;2.85;1.80;;;20.00;58.50;;;;;;5053275;28;20070;-25
2022/08/07 09:00:46;;;;;;;1.42;1.33;;;20.10;58.10;;;;;;5053503;28;20104;-26
2022/08/07 09:03:41;;;;;;;2.33;1.60;;;20.20;57.80;;;;;;5052015;28;20107;-26
2022/08/07 09:06:35;;;;;;;3.90;1.45;;;20.20;57.60;;;;;;5053013;28;20469;-26
2022/08/07 09:09:48;;;;;;;1.80;1.48;;;20.30;57.40;;;;;;5044730;28;20033;-26
2022/08/07 09:12:19;;;;;;;3.25;1.50;;;20.40;56.80;;;;;;5053059;28;20044;-26
2022/08/07 09:15:05;;;;;;;1.92;1.33;;;20.50;56.70;;;;;;5052936;28;20522;-25
2022/08/07 09:18:05;;;;;;;1.50;1.40;;;20.60;56.50;;;;;;5051133;28;20064;-35
2022/08/07 09:20:55;;;;;;;1.55;1.25;;;20.70;56.10;;;;;;5052773;28;20024;-25
2022/08/07 09:23:40;;;;;;;1.30;1.20;;;20.90;55.80;;;;;;5052866;28;20108;-23
2022/08/07 09:26:22;;;;;;;2.05;1.20;;;21.10;56.20;;;;;;5053078;28;20407;-25
2022/08/07 09:28:53;;;;;;;2.63;1.50;;;21.20;55.30;;;;;;5052912;28;20388;-28
2022/08/07 09:31:42;;;;;;;3.05;1.42;;;21.30;55.00;;;;;;5052320;28;20028;-28
2022/08/07 09:34:21;;;;;;;2.53;1.40;;;21.40;54.70;;;;;;5048640;28;20401;-27
2022/08/07 09:37:03;;;;;;;1.60;1.50;;;21.50;54.50;;;;;;5052384;28;20067;-27
2022/08/07 09:39:41;;;;;;;1.48;1.33;;;21.50;54.00;;;;;;5052529;28;20556;-29
2022/08/07 09:42:37;;;;;;;2.17;1.60;;;21.50;53.80;;;;;;5052831;28;20040;-37
2022/08/07 09:45:11;;;;;;;1.48;1.15;;;21.60;53.60;;;;;;5052448;28;20028;-42
2022/08/07 09:47:43;;;;;;;;;;;21.50;53.40;;;;;;5053130;28;20021;-41
2022/08/07 09:50:45;;;;;;;1.60;1.35;;;21.50;53.70;;;;;;5052969;28;19912;-42
2022/08/07 09:53:12;;;;;;;2.15;1.30;;;21.40;53.60;;;;;;5052521;28;20039;-40
2022/08/07 09:56:14;;;;;;;2.63;1.50;;;21.40;53.30;;;;;;5051715;28;20096;-42
2022/08/07 09:59:04;;;;;;;1.73;1.25;;;21.50;53.20;;;;;;5052171;28;20032;-42
2022/08/07 10:02:07;;;;;;;1.20;1.10;;;21.60;53.30;;;;;;5052622;28;20044;-46
2022/08/07 10:04:44;;;;;;;1.30;1.10;;;21.70;52.90;;;;;;5052381;28;20033;-40
2022/08/07 10:07:30;;;;;;;2.28;1.30;;;21.80;52.70;;;;;;5052461;28;20017;-40
2022/08/07 10:10:16;;;;;;;1.65;1.25;;;21.80;52.40;;;;;;5052620;28;20057;-43
2022/08/07 10:13:10;;;;;;;3.33;1.60;;;21.80;52.30;;;;;;5052564;28;20155;-44
2022/08/07 10:15:55;;;;;;;1.80;1.23;;;21.80;52.00;;;;;;5052554;28;20028;-39
2022/08/07 10:18:35;;;;;;;2.67;1.17;;;21.80;52.00;;;;;;5051445;28;20025;-40
2022/08/07 10:21:36;;;;;;;1.70;1.40;;;21.80;52.60;;;;;;5052156;28;20014;-41
2022/08/07 10:24:30;;;;;;;1.80;1.40;;;21.90;51.80;;;;;;5052036;28;20384;-39
2022/08/07 10:27:11;;;;;;;1.88;1.30;;;21.90;51.50;;;;;;5052216;28;20032;-40
2022/08/07 10:29:57;;;;;;;1.85;1.50;;;22.00;51.10;;;;;;5052250;28;20028;-42
2022/08/07 10:32:31;;;;;;;1.63;1.52;;;22.00;51.10;;;;;;5052410;28;20051;-41
2022/08/07 10:35:14;;;;;;;2.25;1.77;;;22.00;50.80;;;;;;5052079;28;20129;-40
2022/08/07 10:38:05;;;;;;;1.80;1.48;;;22.10;50.70;;;;;;5052512;28;20118;-41
2022/08/07 10:40:43;;;;;;;1.70;1.38;;;22.10;50.50;;;;;;5051870;28;20041;-42
2022/08/07 10:43:13;;;;;;;2.17;1.33;;;22.20;50.40;;;;;;5051821;28;20116;-42
2022/08/07 10:45:45;;;;;;;2.33;1.58;;;22.20;50.30;;;;;;5052194;28;20048;-39
2022/08/07 10:48:35;;;;;;;1.83;1.40;;;22.40;50.20;;;;;;5051992;28;20027;-41
2022/08/07 10:51:13;;;;;;;1.60;1.33;;;22.50;50.00;;;;;;5052026;28;20025;-41
2022/08/07 10:53:54;;;;;;;1.67;1.58;;;22.60;49.50;;;;;;5052309;28;20354;-40
2022/08/07 10:56:39;;;;;;;1.77;1.52;;;22.70;49.20;;;;;;5051820;28;20025;-43
2022/08/07 10:59:30;;;;;;;3.13;1.60;;;22.80;49.10;;;;;;5050572;28;20025;-42
2022/08/07 11:02:01;;;;;;;1.67;1.50;;;22.80;49.00;;;;;;5051935;28;20090;-38
2022/08/07 11:04:57;;;;;;;1.58;1.48;;;22.90;48.90;;;;;;5051723;28;20409;-43
2022/08/07 11:07:36;;;;;;;2.08;1.60;;;22.90;48.50;;;;;;5053164;28;20029;-45
2022/08/07 11:10:07;;;;;;;1.70;1.42;;;23.00;48.50;;;;;;5055694;28;20041;-40
2022/08/07 11:12:40;;;;;;;1.45;1.25;;;23.10;48.30;;;;;;5055613;28;20106;-43
2022/08/07 11:15:11;;;;;;;;;;;23.20;48.00;;;;;;5055779;28;20074;-41
2022/08/07 11:17:55;;;;;;;1.65;1.38;;;23.30;48.00;;;;;;5055327;28;19974;-43
2022/08/07 11:20:34;;;;;;;2.20;1.63;;;23.50;47.70;;;;;;5055193;28;20017;-38
2022/08/07 11:23:02;;;;;;;1.73;1.63;;;23.50;48.00;;;;;;5055170;28;20071;-40
2022/08/07 11:25:35;;;;;;;1.70;1.58;;;23.50;47.30;;;;;;5055457;28;20025;-39
2022/08/07 11:28:25;;;;;;;2.05;1.55;;;23.40;47.30;;;;;;5055228;28;20473;-43
2022/08/07 11:31:05;;;;;;;1.60;1.50;;;23.30;47.10;;;;;;5054841;28;20443;-43
2022/08/07 11:33:48;;;;;;;1.95;1.60;;;23.20;47.30;;;;;;5055311;28;20021;-37
2022/08/07 11:36:51;;;;;;;1.77;1.67;;;23.10;47.20;;;;;;5055052;28;20048;-38
2022/08/07 11:39:43;;;;;;;1.63;1.52;;;23.00;47.40;;;;;;5054550;28;20056;-40
2022/08/07 11:42:30;;;;;;;1.77;1.63;;;23.00;47.50;;;;;;5054846;28;20021;-40
2022/08/07 11:45:11;;;;;;;4.82;1.50;;;23.10;47.60;;;;;;5053488;28;20031;-41
2022/08/07 11:47:55;;;;;;;1.95;1.77;;;23.30;47.50;;;;;;5054734;28;20025;-42
2022/08/07 11:50:58;;;;;;;2.22;1.58;;;23.50;47.20;;;;;;5054391;28;20044;-43
2022/08/07 11:53:49;;;;;;;1.63;1.50;;;23.80;47.00;;;;;;5019924;28;20064;-41
2022/08/07 11:56:52;;;;;;;2.25;1.60;;;23.90;46.70;;;;;;5054571;28;20028;-42
2022/08/07 11:59:20;;;;;;;1.50;1.40;;;24.20;46.50;;;;;;5054448;28;20021;-29
2022/08/07 12:02:09;;;;;;;1.55;1.45;;;24.30;46.20;;;;;;5054070;28;20047;-28
2022/08/07 12:04:59;;;;;;;1.67;1.50;;;24.50;45.90;;;;;;5054627;28;20029;-29
2022/08/07 12:07:54;;;;;;;1.67;1.38;;;24.60;45.80;;;;;;5054281;28;20536;-30
2022/08/07 12:10:43;;;;;;;2.03;1.30;;;24.80;45.40;;;;;;5044732;28;20041;-26
2022/08/07 12:13:37;;;;;;;2.28;1.13;;;24.80;45.50;;;;;;5052785;28;20092;-26
2022/08/07 12:16:11;;;;;;;1.60;1.38;;;25.00;45.50;;;;;;5053956;28;20103;-26
2022/08/07 12:19:00;;;;;;;1.55;1.40;;;25.00;45.10;;;;;;5053283;28;20476;-28
2022/08/07 12:21:44;;;;;;;1.65;1.55;;;24.90;45.10;;;;;;5054387;28;20040;-27
2022/08/07 12:24:26;;;;;;;1.30;1.20;;;25.00;45.10;;;;;;5054088;28;20025;-28
2022/08/07 12:27:18;;;;;;;1.88;1.42;;;25.00;45.20;;;;;;5052623;28;20565;-26
2022/08/07 12:29:59;;;;;;;2.38;1.40;;;25.20;45.30;;;;;;5052685;28;20345;-25
2022/08/07 12:32:41;;;;;;;1.50;1.40;;;25.40;45.10;;;;;;5053896;28;20111;-26
2022/08/07 12:35:10;;;;;;;1.70;1.60;;;25.50;44.90;;;;;;5054135;28;20369;-40
2022/08/07 12:37:38;;;;;;;1.98;1.60;;;25.70;44.60;;;;;;5053874;28;20017;-37
2022/08/07 12:40:06;;;;;;;2.17;1.48;;;25.80;44.30;;;;;;5052034;28;20441;-41
2022/08/07 12:42:33;;;;;;;2.00;1.33;;;25.70;44.20;;;;;;5053697;28;20108;-26
2022/08/07 12:45:10;;;;;;;1.77;1.40;;;25.60;44.10;;;;;;5052464;28;20028;-27
2022/08/07 12:47:58;;;;;;;1.48;1.30;;;25.40;43.90;;;;;;5053358;28;20033;-27
2022/08/07 12:50:35;;;;;;;2.97;1.65;;;25.20;44.20;;;;;;5053267;28;20025;-26
2022/08/07 12:53:23;;;;;;;1.25;1.15;;;25.30;44.20;;;;;;5053355;28;20051;-28
2022/08/07 12:56:28;;;;;;;2.72;1.55;;;25.40;44.30;;;;;;5052933;28;20064;-26
2022/08/07 12:58:54;;;;;;;2.10;1.38;;;25.60;43.70;;;;;;5052991;28;20111;-27
2022/08/07 13:01:34;;;;;;;1.42;1.30;;;25.80;43.70;;;;;;5018695;28;20021;-27
2022/08/07 13:04:33;;;;;;;2.90;1.58;;;26.00;43.40;;;;;;5053145;28;20028;-27
2022/08/07 13:07:07;;;;;;;1.98;1.40;;;26.20;43.00;;;;;;5052947;28;20049;-26
2022/08/07 13:09:59;;;;;;;1.30;1.20;;;26.40;42.90;;;;;;5053165;28;20041;-27
2022/08/07 13:12:36;;;;;;;1.40;1.30;;;26.50;42.60;;;;;;5053292;28;20535;-27
2022/08/07 13:15:17;;;;;;;1.77;1.40;;;26.70;42.60;;;;;;5052705;28;20017;-43
2022/08/07 13:18:17;;;;;;;1.85;1.30;;;26.80;42.20;;;;;;5052642;28;20051;-27
2022/08/07 13:20:49;;;;;;;2.10;1.58;;;26.90;42.40;;;;;;5043686;28;20037;-28
2022/08/07 13:23:23;;;;;;;1.50;1.40;;;26.80;42.10;;;;;;5052846;28;20021;-26
2022/08/07 13:26:26;;;;;;;1.48;1.30;;;26.60;41.80;;;;;;5052678;28;20054;-26